Pagrindinis puslapis
METAR-TAF:

METAR-TAF

Oro uostai :

Tarptautinis Brazilijos oro uostas

Brazilija, Federal District, Brazilija

platuma: 15-52S, ilguma: 047-56W, Aukštis: 1061 m

Dabartinis oras

Ataskaita buvo paskelbta 39 minutes, ne 07:00 UTC
Vėjas 1 kt iš Pietvakarių
Temperatūra 14°C
Drėgmė 94%
Slėgis 1021 hPa
Matomumas 10 km arba daugiau
nėra debesų žemiau 1500 m ir nėra kamuolinių lietaus debesų

METAR: SBBR 270700Z 23001KT CAVOK 14/13 Q1021

Laikas: 04:39 (07:39 UTC)

Prognozė

Ataskaita buvo paskelbta 7 valandos ir 39 minutes, ne 00:00 UTC
Prognozė galioja nuo 27 metu 06 UTC su 28 metu 06 UTC
Vėjas kt iš Šiaurės
Matomumas 10 km arba daugiau
nėra debesų žemiau 1500 m ir nėra kamuolinių lietaus debesų
Tapsmas
nuo 27 metu 11 UTC su 27 metu 13 UTC
Vėjas 10 kt iš Rytų
Tapsmas
nuo 27 metu 19 UTC su 27 metu 21 UTC
Vėjas 5 kt iš Pietryčių
Tapsmas
nuo 28 metu 01 UTC su 28 metu 03 UTC
Vėjas kt iš Šiaurės

TAF: SBBR 270000Z 2706/2806 00000KT CAVOK TN15/2709Z TX28/2718Z BECMG 2711/2713 08010KT BECMG 2719/2721 13005KT BECMG 2801/2803 00000KT RMK PGF

Orai ataskaitas ir orų prognozės (METAR, TAF).

turimą stotys yra geltonos ir raudonos taškus žemėlapyje.

Perkelti pele per norėdami pamatyti stoties vardą.

Tada spustelėkite, norėdami matyti oro stebėjimo ir prognozės.

Norėdami pakeisti žemėlapį: spustelėkite ant žalios mygtukų su juodo kryžiaus žemyn,; žalią mygtuką su brūkšneliu, jei norite nutolinti; arba žalių rodyklių gretimoms žemėlapius.


METAR-TAF: